Breckenridge, Texas
Current Conditions -  °F | °C
As of 8:55 PM on Saturday 25 Oct 2014 (Local Time) from KBKD Reporting Station
Clear Clear  
Wind Chill: 76°   Ceiling: Unl
Heat Index: 76°   Visibility: 7mi
Dew Point: 52°   Wind: 8mph
Humidity: 44%   Direction: 150°SSE
Pressure: 30.05"   Gusts: NA
Location:  32.76°N, 98.9°W
Report Text: KBKD 260155Z AUTO 15007KT 7SM CLR 24/11 A3005 RMK AO2 T02440113
Loading
Personal Weather Stations






























Interactive Weather Map
Tropical Storm Tracking
New forecast layout! Learn more

10-Day Weather Forecast

Advertisements
Track Severe Weather on mobile